createdAt,value
2017-10-14T00:01:15.669Z,17.70
2017-10-14T00:03:41.914Z,17.70
2017-10-14T00:06:08.934Z,17.60
2017-10-14T00:08:35.205Z,17.60
2017-10-14T00:11:02.554Z,17.60
2017-10-14T00:13:28.827Z,17.70
2017-10-14T00:15:55.127Z,17.70
2017-10-14T00:18:21.428Z,17.60
2017-10-14T00:20:47.684Z,17.70
2017-10-14T00:23:13.949Z,17.60
2017-10-14T00:25:40.202Z,17.60
2017-10-14T00:28:07.188Z,17.70
2017-10-14T00:30:33.463Z,17.60
2017-10-14T00:32:59.727Z,17.60
2017-10-14T00:35:26.007Z,17.70
2017-10-14T00:37:52.311Z,17.60
2017-10-14T00:40:18.582Z,17.50
2017-10-14T00:42:45.572Z,17.60
2017-10-14T00:45:11.857Z,17.60
2017-10-14T00:47:38.876Z,17.60
2017-10-14T00:50:05.162Z,17.60
2017-10-14T00:52:31.446Z,18.10
2017-10-14T00:54:57.728Z,17.60
2017-10-14T00:57:23.999Z,17.70
2017-10-14T00:59:51.001Z,17.70
2017-10-14T01:02:17.285Z,17.70
2017-10-14T01:04:44.295Z,17.80
2017-10-14T01:07:10.578Z,17.80
2017-10-14T01:09:36.830Z,17.90
2017-10-14T01:12:03.092Z,17.90
2017-10-14T01:14:29.469Z,18.00
2017-10-14T01:16:56.474Z,17.90
2017-10-14T01:19:23.514Z,17.90
2017-10-14T01:21:49.774Z,17.90
2017-10-14T01:24:16.784Z,17.70
2017-10-14T01:26:43.035Z,17.70
2017-10-14T01:29:10.043Z,17.50
2017-10-14T01:31:36.317Z,17.50
2017-10-14T01:34:03.331Z,17.60
2017-10-14T01:36:29.595Z,17.60
2017-10-14T01:38:56.580Z,17.70
2017-10-14T01:41:22.868Z,17.70
2017-10-14T01:43:51.989Z,17.70
2017-10-14T01:46:18.243Z,17.70
2017-10-14T01:48:44.542Z,17.70
2017-10-14T01:51:10.816Z,17.70
2017-10-14T01:53:37.168Z,17.60
2017-10-14T01:56:03.443Z,17.50
2017-10-14T01:58:29.693Z,17.80
2017-10-14T02:00:55.956Z,17.40
2017-10-14T02:03:22.993Z,17.30
2017-10-14T02:05:50.017Z,17.30
2017-10-14T02:08:17.047Z,17.20
2017-10-14T02:10:43.331Z,17.30
2017-10-14T02:13:09.603Z,17.20
2017-10-14T02:15:35.870Z,17.20
2017-10-14T02:18:02.876Z,17.20
2017-10-14T02:20:29.940Z,17.20
2017-10-14T02:22:56.955Z,17.20
2017-10-14T02:25:23.218Z,17.40
2017-10-14T02:27:49.482Z,17.20
2017-10-14T02:30:15.760Z,17.20
2017-10-14T02:32:42.030Z,17.10
2017-10-14T02:35:08.321Z,17.10
2017-10-14T02:37:34.570Z,17.20
2017-10-14T02:40:01.599Z,17.20
2017-10-14T02:42:27.847Z,17.20
2017-10-14T02:44:54.869Z,17.20
2017-10-14T02:47:21.194Z,17.20
2017-10-14T02:49:47.485Z,17.20
2017-10-14T02:52:13.776Z,17.50
2017-10-14T02:54:40.819Z,17.20
2017-10-14T02:57:07.806Z,17.20
2017-10-14T02:59:34.059Z,17.20
2017-10-14T03:02:00.319Z,17.10
2017-10-14T03:04:27.362Z,17.10
2017-10-14T03:06:56.739Z,17.10
2017-10-14T03:09:25.410Z,17.00
2017-10-14T03:11:51.654Z,17.20
2017-10-14T03:14:17.911Z,17.00
2017-10-14T03:16:44.963Z,17.10
2017-10-14T03:19:11.947Z,17.00
2017-10-14T03:21:38.212Z,16.60
2017-10-14T03:24:04.455Z,17.10
2017-10-14T03:26:31.475Z,17.10
2017-10-14T03:28:58.511Z,17.10
2017-10-14T03:31:25.512Z,17.10
2017-10-14T03:33:51.763Z,17.00
2017-10-14T03:36:18.024Z,17.00
2017-10-14T03:38:44.302Z,17.00
2017-10-14T03:41:10.575Z,17.30
2017-10-14T03:43:36.838Z,16.90
2017-10-14T03:46:03.854Z,17.00
2017-10-14T03:48:30.180Z,17.30
2017-10-14T03:50:56.429Z,16.90
2017-10-14T03:53:23.459Z,16.80
2017-10-14T03:55:49.703Z,16.80
2017-10-14T03:58:16.704Z,16.90
2017-10-14T04:00:42.955Z,16.80
2017-10-14T04:03:09.234Z,16.80
2017-10-14T04:05:35.507Z,16.80
2017-10-14T04:08:01.792Z,17.10
2017-10-14T04:10:28.034Z,16.50
2017-10-14T04:12:54.305Z,16.80
2017-10-14T04:15:21.378Z,16.80
2017-10-14T04:17:47.687Z,17.00
2017-10-14T04:20:14.664Z,16.90
2017-10-14T04:22:40.948Z,16.90
2017-10-14T04:25:07.211Z,16.50
2017-10-14T04:27:33.499Z,16.80
2017-10-14T04:30:00.504Z,16.80
2017-10-14T04:32:26.793Z,16.80
2017-10-14T04:34:53.789Z,16.70
2017-10-14T04:37:20.043Z,16.70
2017-10-14T04:39:46.313Z,16.70
2017-10-14T04:42:12.571Z,16.70
2017-10-14T04:44:38.844Z,16.70
2017-10-14T04:47:05.851Z,16.70
2017-10-14T04:49:32.118Z,16.70
2017-10-14T04:51:59.175Z,16.60
2017-10-14T04:54:26.192Z,16.60
2017-10-14T04:56:52.464Z,16.60
2017-10-14T04:59:18.740Z,16.60
2017-10-14T05:01:45.025Z,16.50
2017-10-14T05:04:11.299Z,16.50
2017-10-14T05:06:37.577Z,16.50
2017-10-14T05:09:03.927Z,16.50
2017-10-14T05:11:30.197Z,16.50
2017-10-14T05:13:57.222Z,16.40
2017-10-14T05:16:23.513Z,16.40
2017-10-14T05:18:49.766Z,16.30
2017-10-14T05:21:16.760Z,16.30
2017-10-14T05:23:43.077Z,16.30
2017-10-14T05:26:10.116Z,16.30
2017-10-14T05:28:37.126Z,16.40
2017-10-14T05:31:03.390Z,16.40
2017-10-14T05:33:30.423Z,16.40
2017-10-14T05:35:56.736Z,16.40
2017-10-14T05:38:23.012Z,16.60
2017-10-14T05:40:49.374Z,16.30
2017-10-14T05:43:15.642Z,16.30
2017-10-14T05:45:41.912Z,16.60
2017-10-14T05:48:08.187Z,16.30
2017-10-14T05:50:34.456Z,16.60
2017-10-14T05:53:01.471Z,16.40
2017-10-14T05:55:27.736Z,16.40
2017-10-14T05:57:54.030Z,16.40
2017-10-14T06:00:20.323Z,16.30
2017-10-14T06:02:46.595Z,16.00
2017-10-14T06:05:12.858Z,16.30
2017-10-14T06:07:39.118Z,15.90
2017-10-14T06:10:05.466Z,16.60
2017-10-14T06:12:31.736Z,16.30
2017-10-14T06:14:58.736Z,16.30
2017-10-14T06:17:24.996Z,16.50
2017-10-14T06:19:52.007Z,16.40
2017-10-14T06:22:19.024Z,16.30
2017-10-14T06:24:45.299Z,16.30
2017-10-14T06:27:11.531Z,16.60
2017-10-14T06:29:37.760Z,16.40
2017-10-14T06:32:04.008Z,16.40
2017-10-14T06:34:30.262Z,16.40
2017-10-14T06:36:56.529Z,16.40
2017-10-14T06:39:22.811Z,16.20
2017-10-14T06:41:49.055Z,16.50
2017-10-14T06:44:15.307Z,16.50
2017-10-14T06:46:41.585Z,16.50
2017-10-14T06:49:07.837Z,16.50
2017-10-14T06:51:34.103Z,16.50
2017-10-14T06:54:00.323Z,16.60
2017-10-14T06:56:26.563Z,16.60
2017-10-14T06:58:52.774Z,16.70
2017-10-14T07:01:19.020Z,16.70
2017-10-14T07:03:45.995Z,16.80
2017-10-14T07:06:12.220Z,16.80
2017-10-14T07:08:38.476Z,16.80
2017-10-14T07:11:04.721Z,17.10
2017-10-14T07:13:30.966Z,17.30
2017-10-14T07:15:57.187Z,17.00
2017-10-14T07:18:23.416Z,17.10
2017-10-14T07:20:49.694Z,17.20
2017-10-14T07:23:15.952Z,17.30
2017-10-14T07:25:42.203Z,17.40
2017-10-14T07:28:08.476Z,17.40
2017-10-14T07:30:34.741Z,17.40
2017-10-14T07:33:00.982Z,17.50
2017-10-14T07:35:28.235Z,17.50
2017-10-14T07:37:54.580Z,17.60
2017-10-14T07:40:21.579Z,17.80
2017-10-14T07:42:47.815Z,17.90
2017-10-14T07:45:14.080Z,17.50
2017-10-14T07:47:41.055Z,18.00
2017-10-14T07:50:07.312Z,18.00
2017-10-14T07:52:33.568Z,18.20
2017-10-14T07:54:59.791Z,18.30
2017-10-14T07:57:26.159Z,18.30
2017-10-14T07:59:52.461Z,18.50
2017-10-14T08:02:19.434Z,19.00
2017-10-14T08:04:45.662Z,19.00
2017-10-14T08:07:11.955Z,19.40
2017-10-14T08:09:38.286Z,19.70
2017-10-14T08:12:05.274Z,20.50
2017-10-14T08:14:32.568Z,20.50
2017-10-14T08:16:58.804Z,20.80
2017-10-14T08:19:25.274Z,21.00
2017-10-14T08:21:51.580Z,21.20
2017-10-14T08:24:18.613Z,21.50
2017-10-14T08:26:44.870Z,21.50
2017-10-14T08:29:11.176Z,21.90
2017-10-14T08:31:37.394Z,21.90
2017-10-14T08:34:03.646Z,22.00
2017-10-14T08:36:30.648Z,22.20
2017-10-14T08:38:56.883Z,22.20
2017-10-14T08:41:23.176Z,22.20
2017-10-14T08:43:49.409Z,22.20
2017-10-14T08:46:15.639Z,22.00
2017-10-14T08:48:41.876Z,22.50
2017-10-14T08:51:08.142Z,22.70
2017-10-14T08:53:34.412Z,22.90
2017-10-14T08:56:00.696Z,23.00
2017-10-14T08:58:27.034Z,23.20
2017-10-14T09:00:53.261Z,22.90
2017-10-14T09:03:20.245Z,23.20
2017-10-14T09:05:46.493Z,23.50
2017-10-14T09:08:12.755Z,22.70
2017-10-14T09:10:39.710Z,23.20
2017-10-14T09:13:05.947Z,23.20
2017-10-14T09:15:32.174Z,23.30
2017-10-14T09:17:59.217Z,23.20
2017-10-14T09:20:25.463Z,23.50
2017-10-14T09:22:51.717Z,23.40
2017-10-14T09:25:17.984Z,23.40
2017-10-14T09:27:44.252Z,23.10
2017-10-14T09:30:10.543Z,23.50
2017-10-14T09:32:36.827Z,23.70
2017-10-14T09:35:03.111Z,23.80
2017-10-14T09:37:29.347Z,23.80
2017-10-14T09:39:55.668Z,23.80
2017-10-14T09:42:22.259Z,24.00
2017-10-14T09:44:48.548Z,24.00
2017-10-14T09:47:14.803Z,24.00
2017-10-14T09:49:41.815Z,24.10
2017-10-14T09:52:08.036Z,24.00
2017-10-14T09:54:34.306Z,24.00
2017-10-14T09:57:01.369Z,24.20
2017-10-14T09:59:28.357Z,23.80
2017-10-14T10:01:54.572Z,23.80
2017-10-14T10:04:20.824Z,23.70
2017-10-14T10:06:47.073Z,23.80
2017-10-14T10:09:14.070Z,24.10
2017-10-14T10:11:40.408Z,24.10
2017-10-14T10:14:06.675Z,24.30
2017-10-14T10:16:32.934Z,24.40
2017-10-14T10:18:59.933Z,24.80
2017-10-14T10:21:26.199Z,24.70
2017-10-14T10:23:52.454Z,24.80
2017-10-14T10:26:19.773Z,24.90
2017-10-14T10:28:46.156Z,24.90
2017-10-14T10:31:12.427Z,25.00
2017-10-14T10:33:38.661Z,24.90
2017-10-14T10:36:04.891Z,25.20
2017-10-14T10:38:31.175Z,25.20
2017-10-14T10:40:57.439Z,25.10
2017-10-14T10:43:23.705Z,25.20
2017-10-14T10:45:50.748Z,25.20
2017-10-14T10:48:17.000Z,25.20
2017-10-14T10:50:43.272Z,24.80
2017-10-14T10:53:10.260Z,24.80
2017-10-14T10:55:36.534Z,24.80
2017-10-14T10:58:03.544Z,24.80
2017-10-14T11:00:29.830Z,24.80
2017-10-14T11:02:56.814Z,24.90
2017-10-14T11:05:23.099Z,24.90
2017-10-14T11:07:50.080Z,25.30
2017-10-14T11:10:16.323Z,25.30
2017-10-14T11:12:42.571Z,25.30
2017-10-14T11:15:08.810Z,25.50
2017-10-14T11:17:35.079Z,25.40
2017-10-14T11:20:01.384Z,25.30
2017-10-14T11:22:27.666Z,25.30
2017-10-14T11:24:53.910Z,25.20
2017-10-14T11:27:21.004Z,25.10
2017-10-14T11:29:47.585Z,25.10
2017-10-14T11:32:13.825Z,25.10
2017-10-14T11:34:40.048Z,25.00
2017-10-14T11:37:07.086Z,25.10
2017-10-14T11:39:33.468Z,25.00
2017-10-14T11:42:00.484Z,25.20
2017-10-14T11:44:27.032Z,25.20
2017-10-14T11:46:53.511Z,25.20
2017-10-14T11:49:20.117Z,25.40
2017-10-14T11:51:46.557Z,25.60
2017-10-14T11:54:12.771Z,25.50
2017-10-14T11:56:40.054Z,25.50
2017-10-14T11:59:06.322Z,25.40
2017-10-14T12:01:33.228Z,25.40
2017-10-14T12:03:59.272Z,25.30
2017-10-14T12:06:25.306Z,25.30
2017-10-14T12:08:52.459Z,25.30
2017-10-14T12:11:19.408Z,25.40
2017-10-14T12:13:46.077Z,25.40
2017-10-14T12:16:12.719Z,25.30
2017-10-14T12:18:40.398Z,25.40
2017-10-14T12:21:07.252Z,25.40
2017-10-14T12:23:33.776Z,25.40
2017-10-14T12:26:00.230Z,25.60
2017-10-14T12:28:27.012Z,25.40
2017-10-14T12:30:53.443Z,25.40
2017-10-14T12:33:19.819Z,25.10
2017-10-14T12:35:47.013Z,25.40
2017-10-14T12:38:13.357Z,25.30
2017-10-14T12:40:39.998Z,25.50
2017-10-14T12:43:06.278Z,25.60
2017-10-14T12:45:33.416Z,25.70
2017-10-14T12:47:59.974Z,25.60
2017-10-14T12:50:28.754Z,25.40
2017-10-14T12:52:55.254Z,25.30
2017-10-14T12:55:21.848Z,25.30
2017-10-14T12:57:48.332Z,25.20
2017-10-14T13:00:15.134Z,25.30
2017-10-14T13:02:45.703Z,25.20
2017-10-14T13:05:12.402Z,25.10
2017-10-14T13:07:39.683Z,25.30
2017-10-14T13:10:06.340Z,25.30
2017-10-14T13:12:33.583Z,25.60
2017-10-14T13:15:00.024Z,25.60
2017-10-14T13:17:26.503Z,25.70
2017-10-14T13:19:52.990Z,25.30
2017-10-14T13:22:19.692Z,25.40
2017-10-14T13:24:46.203Z,25.40
2017-10-14T13:27:13.495Z,25.50
2017-10-14T13:29:40.206Z,25.50
2017-10-14T13:32:06.592Z,25.60
2017-10-14T13:34:33.059Z,25.50
2017-10-14T13:36:59.511Z,25.50
2017-10-14T13:39:26.896Z,25.30
2017-10-14T13:41:54.236Z,25.40
2017-10-14T13:44:21.525Z,25.40
2017-10-14T13:46:50.114Z,25.50
2017-10-14T13:49:16.572Z,25.50
2017-10-14T13:51:43.216Z,25.50
2017-10-14T13:54:09.644Z,25.60
2017-10-14T13:56:36.404Z,25.60
2017-10-14T13:59:02.753Z,25.50
2017-10-14T14:01:28.995Z,25.20
2017-10-14T14:03:55.209Z,25.20
2017-10-14T14:06:21.443Z,25.20
2017-10-14T14:08:47.679Z,25.20
2017-10-14T14:11:14.653Z,25.20
2017-10-14T14:13:40.906Z,25.10
2017-10-14T14:16:07.154Z,25.10
2017-10-14T14:18:33.386Z,25.10
2017-10-14T14:20:59.659Z,25.10
2017-10-14T14:23:25.914Z,25.10
2017-10-14T14:25:52.270Z,25.20
2017-10-14T14:28:18.555Z,24.90
2017-10-14T14:30:44.840Z,25.00
2017-10-14T14:33:11.161Z,25.10
2017-10-14T14:35:37.486Z,25.40
2017-10-14T14:38:03.759Z,25.40
2017-10-14T14:40:31.125Z,25.30
2017-10-14T14:42:57.406Z,25.10
2017-10-14T14:45:23.633Z,25.00
2017-10-14T14:47:50.631Z,25.00
2017-10-14T14:50:16.930Z,25.00
2017-10-14T14:52:43.177Z,25.00
2017-10-14T14:55:10.175Z,24.80
2017-10-14T14:57:36.418Z,25.10
2017-10-14T15:00:03.442Z,24.30
2017-10-14T15:02:30.116Z,24.30
2017-10-14T15:04:56.383Z,24.10
2017-10-14T15:07:22.627Z,24.20
2017-10-14T15:09:49.612Z,23.50
2017-10-14T15:12:16.402Z,23.40
2017-10-14T15:14:43.707Z,23.10
2017-10-14T15:17:09.963Z,23.10
2017-10-14T15:19:36.757Z,23.00
2017-10-14T15:22:03.777Z,23.00
2017-10-14T15:24:30.028Z,23.00
2017-10-14T15:26:57.012Z,22.90
2017-10-14T15:29:23.296Z,22.90
2017-10-14T15:31:49.579Z,22.90
2017-10-14T15:34:16.620Z,22.80
2017-10-14T15:36:42.859Z,22.80
2017-10-14T15:39:09.109Z,22.80
2017-10-14T15:41:35.441Z,22.80
2017-10-14T15:44:01.720Z,22.70
2017-10-14T15:46:27.995Z,22.70
2017-10-14T15:48:54.206Z,22.50
2017-10-14T15:51:21.290Z,22.50
2017-10-14T15:53:47.536Z,22.50
2017-10-14T15:56:13.782Z,22.50
2017-10-14T15:58:40.023Z,22.40
2017-10-14T16:01:06.272Z,22.40
2017-10-14T16:03:33.272Z,22.40
2017-10-14T16:05:59.502Z,22.40
2017-10-14T16:08:25.776Z,22.40
2017-10-14T16:10:52.031Z,22.30
2017-10-14T16:13:19.045Z,22.30
2017-10-14T16:15:45.309Z,22.20
2017-10-14T16:18:11.581Z,22.20
2017-10-14T16:20:38.652Z,22.00
2017-10-14T16:23:04.899Z,21.90
2017-10-14T16:25:31.932Z,22.00
2017-10-14T16:27:58.928Z,22.00
2017-10-14T16:30:25.273Z,21.90
2017-10-14T16:32:51.568Z,21.80
2017-10-14T16:35:17.825Z,22.00
2017-10-14T16:37:44.092Z,21.80
2017-10-14T16:40:10.331Z,21.50
2017-10-14T16:42:36.623Z,21.50
2017-10-14T16:45:02.885Z,21.40
2017-10-14T16:47:29.922Z,21.40
2017-10-14T16:49:56.223Z,21.40
2017-10-14T16:52:22.479Z,21.70
2017-10-14T16:54:48.737Z,21.10
2017-10-14T16:57:15.069Z,21.00
2017-10-14T16:59:41.403Z,21.00
2017-10-14T17:02:08.487Z,21.00
2017-10-14T17:04:34.769Z,20.90
2017-10-14T17:07:01.042Z,20.90
2017-10-14T17:09:27.302Z,20.80
2017-10-14T17:11:53.543Z,20.80
2017-10-14T17:14:19.808Z,20.80
2017-10-14T17:16:46.071Z,20.70
2017-10-14T17:19:13.080Z,20.50
2017-10-14T17:21:39.334Z,20.40
2017-10-14T17:24:06.368Z,20.10
2017-10-14T17:26:32.618Z,20.10
2017-10-14T17:28:58.908Z,20.20
2017-10-14T17:31:25.187Z,20.10
2017-10-14T17:33:52.166Z,20.00
2017-10-14T17:36:18.476Z,19.90
2017-10-14T17:38:45.472Z,19.50
2017-10-14T17:41:11.749Z,19.40
2017-10-14T17:43:38.014Z,19.60
2017-10-14T17:46:04.300Z,19.60
2017-10-14T17:48:31.271Z,19.60
2017-10-14T17:50:57.578Z,19.60
2017-10-14T17:53:23.859Z,19.50
2017-10-14T17:55:50.145Z,19.40
2017-10-14T17:58:16.417Z,19.40
2017-10-14T18:00:42.705Z,19.40
2017-10-14T18:03:08.970Z,19.40
2017-10-14T18:05:35.253Z,19.60
2017-10-14T18:08:01.520Z,19.20
2017-10-14T18:10:27.746Z,19.40
2017-10-14T18:12:54.779Z,19.00
2017-10-14T18:15:21.055Z,19.00
2017-10-14T18:17:47.295Z,18.90
2017-10-14T18:20:14.304Z,18.80
2017-10-14T18:22:40.586Z,18.80
2017-10-14T18:25:06.830Z,19.10
2017-10-14T18:27:33.103Z,18.80
2017-10-14T18:30:00.114Z,18.60
2017-10-14T18:32:26.395Z,18.70
2017-10-14T18:34:52.676Z,18.60
2017-10-14T18:37:19.019Z,18.60
2017-10-14T18:39:45.255Z,18.20
2017-10-14T18:42:11.522Z,18.50
2017-10-14T18:44:37.764Z,18.50
2017-10-14T18:47:04.019Z,18.50
2017-10-14T18:49:30.291Z,18.40
2017-10-14T18:51:57.298Z,18.20
2017-10-14T18:54:23.590Z,18.20
2017-10-14T18:56:49.869Z,18.30
2017-10-14T18:59:16.119Z,18.00
2017-10-14T19:01:42.369Z,17.80
2017-10-14T19:04:08.650Z,18.00
2017-10-14T19:06:35.578Z,18.00
2017-10-14T19:09:01.873Z,18.10
2017-10-14T19:11:28.115Z,18.00
2017-10-14T19:13:54.356Z,18.00
2017-10-14T19:16:20.422Z,18.00
2017-10-14T19:18:46.459Z,17.80
2017-10-14T19:21:12.519Z,17.80
2017-10-14T19:23:38.651Z,18.10
2017-10-14T19:26:04.695Z,17.70
2017-10-14T19:28:30.768Z,17.60
2017-10-14T19:30:56.830Z,17.70
2017-10-14T19:33:22.885Z,17.80
2017-10-14T19:35:48.951Z,17.80
2017-10-14T19:38:15.023Z,17.80
2017-10-14T19:40:41.804Z,17.70
2017-10-14T19:43:08.076Z,17.40
2017-10-14T19:45:34.111Z,17.70
2017-10-14T19:48:00.933Z,17.70
2017-10-14T19:50:26.970Z,17.70
2017-10-14T19:52:53.772Z,17.60
2017-10-14T19:55:19.854Z,17.60
2017-10-14T19:57:45.898Z,17.50
2017-10-14T20:00:11.969Z,17.50
2017-10-14T20:02:38.019Z,17.50
2017-10-14T20:05:04.099Z,17.40
2017-10-14T20:07:30.187Z,17.40
2017-10-14T20:09:56.263Z,17.30
2017-10-14T20:12:22.316Z,17.70
2017-10-14T20:14:48.626Z,17.30
2017-10-14T20:17:15.447Z,17.20
2017-10-14T20:19:42.228Z,17.20
2017-10-14T20:22:08.263Z,17.20
2017-10-14T20:24:34.313Z,17.20
2017-10-14T20:27:00.365Z,17.20
2017-10-14T20:29:27.155Z,17.20
2017-10-14T20:31:53.203Z,17.20
2017-10-14T20:34:19.257Z,17.10
2017-10-14T20:36:46.042Z,17.10
2017-10-14T20:39:12.097Z,17.10
2017-10-14T20:41:38.177Z,17.10
2017-10-14T20:44:04.955Z,17.10
2017-10-14T20:46:31.054Z,17.10
2017-10-14T20:48:57.126Z,17.10
2017-10-14T20:51:23.923Z,17.00
2017-10-14T20:53:50.763Z,16.70
2017-10-14T20:56:16.811Z,16.70
2017-10-14T20:58:42.863Z,16.50
2017-10-14T21:01:08.948Z,16.50
2017-10-14T21:03:35.026Z,16.70
2017-10-14T21:06:01.062Z,16.80
2017-10-14T21:08:27.097Z,16.80
2017-10-14T21:10:53.158Z,16.30
2017-10-14T21:13:19.242Z,16.80
2017-10-14T21:15:45.286Z,16.70
2017-10-14T21:18:11.331Z,16.70
2017-10-14T21:20:38.151Z,16.60
2017-10-14T21:23:04.186Z,16.60
2017-10-14T21:25:30.977Z,16.60
2017-10-14T21:27:57.024Z,16.80
2017-10-14T21:30:23.087Z,16.50
2017-10-14T21:32:49.884Z,16.50
2017-10-14T21:35:15.940Z,16.50
2017-10-14T21:37:41.984Z,16.90
2017-10-14T21:40:08.040Z,16.60
2017-10-14T21:42:34.094Z,16.50
2017-10-14T21:45:00.178Z,16.50
2017-10-14T21:47:26.219Z,16.50
2017-10-14T21:49:52.259Z,16.40
2017-10-14T21:52:18.311Z,16.40
2017-10-14T21:54:45.086Z,16.30
2017-10-14T21:57:11.132Z,16.30
2017-10-14T21:59:37.230Z,16.30
2017-10-14T22:02:03.999Z,16.30
2017-10-14T22:04:30.047Z,16.30
2017-10-14T22:06:56.194Z,16.30
2017-10-14T22:09:23.077Z,16.30
2017-10-14T22:11:49.215Z,16.00
2017-10-14T22:14:15.250Z,16.20
2017-10-14T22:16:41.299Z,16.20
2017-10-14T22:19:08.103Z,16.10
2017-10-14T22:21:34.157Z,16.10
2017-10-14T22:24:00.999Z,15.90
2017-10-14T22:26:27.775Z,15.80
2017-10-14T22:28:53.851Z,15.80
2017-10-14T22:31:19.908Z,15.80
2017-10-14T22:33:46.110Z,15.90
2017-10-14T22:36:12.208Z,15.50
2017-10-14T22:38:38.263Z,16.00
2017-10-14T22:41:05.054Z,16.00
2017-10-14T22:43:31.122Z,15.90
2017-10-14T22:45:57.911Z,15.90
2017-10-14T22:48:24.005Z,15.90
2017-10-14T22:50:50.055Z,15.90
2017-10-14T22:53:16.107Z,15.90
2017-10-14T22:55:42.195Z,15.90
2017-10-14T22:58:08.246Z,15.80
2017-10-14T23:00:34.324Z,15.80
2017-10-14T23:03:00.387Z,15.90
2017-10-14T23:05:26.648Z,15.70
2017-10-14T23:07:52.892Z,15.70
2017-10-14T23:10:19.126Z,15.70
2017-10-14T23:12:46.150Z,15.50
2017-10-14T23:15:13.152Z,15.40
2017-10-14T23:17:39.404Z,15.30
2017-10-14T23:20:05.634Z,15.50
2017-10-14T23:22:31.894Z,15.50
2017-10-14T23:24:58.150Z,15.50
2017-10-14T23:27:24.401Z,15.50
2017-10-14T23:29:50.670Z,15.50
2017-10-14T23:32:17.169Z,15.50
2017-10-14T23:34:43.420Z,15.50
2017-10-14T23:37:10.487Z,15.50
2017-10-14T23:39:37.477Z,15.40
2017-10-14T23:42:03.783Z,15.40
2017-10-14T23:44:30.056Z,15.40
2017-10-14T23:46:57.074Z,15.30
2017-10-14T23:49:23.387Z,15.30
2017-10-14T23:51:49.631Z,15.30
2017-10-14T23:54:16.095Z,15.20
2017-10-14T23:56:42.357Z,15.20
2017-10-14T23:59:08.614Z,15.20
